N244BD LELL-LEGE
Flight info
| Callsign | N244BD |
|---|---|
| Flight time | 0h 41m |
| Altitude | 2500 |
| Route | NE S3 MATARO LLAFRANC E |
| Aircraft | C172/L-SGO/C |
Departure
| Time | 2026-05-05 18:54 |
|---|---|
| Airport | Sabadell Airfield (LELL) |
Arrival
| Time | 2026-05-05 19:35 |
|---|---|
| Airport | Girona-Costa Brava Airport (LEGE) |
| Time | Latitude | Longitude | Altitude | Speed | Heading |
|---|---|---|---|---|---|
| 2026-05-05 18:32 | 41.51894 | 2.10574 | 470 ft | 0 kts | 218° |
| 2026-05-05 18:47 | 41.51893 | 2.10573 | 470 ft | 1 kts | 201° |
| 2026-05-05 18:47 | 41.51876 | 2.10610 | 470 ft | 8 kts | 47° |
| 2026-05-05 18:47 | 41.51914 | 2.10611 | 472 ft | 3 kts | 297° |
| 2026-05-05 18:48 | 41.51926 | 2.10582 | 472 ft | 5 kts | 302° |
| 2026-05-05 18:48 | 41.51954 | 2.10528 | 472 ft | 8 kts | 308° |
| 2026-05-05 18:48 | 41.52002 | 2.10453 | 472 ft | 18 kts | 313° |
| 2026-05-05 18:48 | 41.52078 | 2.10308 | 472 ft | 16 kts | 301° |
| 2026-05-05 18:49 | 41.52140 | 2.10209 | 473 ft | 12 kts | 311° |
| 2026-05-05 18:49 | 41.52199 | 2.10096 | 472 ft | 20 kts | 307° |
| 2026-05-05 18:49 | 41.52283 | 2.10032 | 472 ft | 5 kts | 357° |
| 2026-05-05 18:49 | 41.52290 | 2.10031 | 472 ft | 0 kts | 355° |
| 2026-05-05 18:51 | 41.52306 | 2.10030 | 472 ft | 4 kts | 13° |
| 2026-05-05 18:51 | 41.52308 | 2.10031 | 472 ft | 0 kts | 12° |
| 2026-05-05 18:53 | 41.52311 | 2.10032 | 472 ft | 4 kts | 10° |
| 2026-05-05 18:53 | 41.52332 | 2.10057 | 473 ft | 3 kts | 81° |
| 2026-05-05 18:53 | 41.52323 | 2.10093 | 474 ft | 7 kts | 125° |
| 2026-05-05 18:53 | 41.52206 | 2.10308 | 478 ft | 52 kts | 131° |
| 2026-05-05 18:54 | 41.51896 | 2.10835 | 510 ft | 85 kts | 129° |
| 2026-05-05 18:54 | 41.51494 | 2.11465 | 663 ft | 92 kts | 130° |
| 2026-05-05 18:54 | 41.51265 | 2.12185 | 951 ft | 86 kts | 83° |
| 2026-05-05 18:54 | 41.51455 | 2.12943 | 1172 ft | 84 kts | 67° |
| 2026-05-05 18:55 | 41.51655 | 2.13659 | 1411 ft | 82 kts | 66° |
| 2026-05-05 18:55 | 41.51884 | 2.14393 | 1537 ft | 92 kts | 63° |
| 2026-05-05 18:55 | 41.52183 | 2.15151 | 1734 ft | 93 kts | 61° |
| 2026-05-05 18:55 | 41.52491 | 2.15947 | 1862 ft | 99 kts | 59° |
| 2026-05-05 18:56 | 41.52843 | 2.16800 | 1877 ft | 115 kts | 63° |
| 2026-05-05 18:56 | 41.53210 | 2.17761 | 2011 ft | 115 kts | 65° |
| 2026-05-05 18:56 | 41.53571 | 2.18735 | 2122 ft | 116 kts | 65° |
| 2026-05-05 18:56 | 41.53923 | 2.19698 | 2276 ft | 114 kts | 65° |
| 2026-05-05 18:57 | 41.54271 | 2.20691 | 2305 ft | 123 kts | 68° |
| 2026-05-05 18:57 | 41.54619 | 2.21754 | 2316 ft | 127 kts | 70° |
| 2026-05-05 18:57 | 41.54948 | 2.22860 | 2227 ft | 134 kts | 71° |
| 2026-05-05 18:57 | 41.55284 | 2.24068 | 2049 ft | 138 kts | 72° |
| 2026-05-05 18:58 | 41.55591 | 2.25262 | 2007 ft | 135 kts | 73° |
| 2026-05-05 18:58 | 41.55862 | 2.26460 | 1937 ft | 134 kts | 75° |
| 2026-05-05 18:58 | 41.56081 | 2.27642 | 1956 ft | 129 kts | 78° |
| 2026-05-05 18:58 | 41.56288 | 2.28857 | 1759 ft | 139 kts | 77° |
| 2026-05-05 18:59 | 41.56458 | 2.30103 | 1737 ft | 133 kts | 82° |
| 2026-05-05 18:59 | 41.56540 | 2.31332 | 1713 ft | 133 kts | 83° |
| 2026-05-05 18:59 | 41.56608 | 2.32560 | 1709 ft | 130 kts | 85° |
| 2026-05-05 18:59 | 41.56655 | 2.33739 | 1754 ft | 128 kts | 87° |
| 2026-05-05 19:00 | 41.56644 | 2.34950 | 1730 ft | 131 kts | 92° |
| 2026-05-05 19:00 | 41.56550 | 2.36136 | 1776 ft | 128 kts | 96° |
| 2026-05-05 19:00 | 41.56431 | 2.37310 | 1825 ft | 126 kts | 97° |
| 2026-05-05 19:00 | 41.56281 | 2.38463 | 1832 ft | 128 kts | 100° |
| 2026-05-05 19:01 | 41.56105 | 2.39640 | 1838 ft | 129 kts | 99° |
| 2026-05-05 19:01 | 41.55938 | 2.40802 | 1899 ft | 126 kts | 98° |
| 2026-05-05 19:01 | 41.55797 | 2.41959 | 1906 ft | 127 kts | 97° |
| 2026-05-05 19:01 | 41.55651 | 2.43113 | 1952 ft | 125 kts | 98° |
| 2026-05-05 19:02 | 41.55501 | 2.44257 | 1974 ft | 125 kts | 97° |
| 2026-05-05 19:02 | 41.55436 | 2.45394 | 2049 ft | 122 kts | 86° |
| 2026-05-05 19:02 | 41.55582 | 2.46473 | 2171 ft | 116 kts | 76° |
| 2026-05-05 19:02 | 41.55725 | 2.47180 | 2153 ft | 122 kts | 72° |
| 2026-05-05 19:03 | 41.55992 | 2.48262 | 2163 ft | 123 kts | 71° |
| 2026-05-05 19:03 | 41.56367 | 2.49724 | 2112 ft | 129 kts | 71° |
| 2026-05-05 19:03 | 41.56685 | 2.50801 | 2243 ft | 121 kts | 69° |
| 2026-05-05 19:03 | 41.56973 | 2.51883 | 2203 ft | 128 kts | 79° |
| 2026-05-05 19:04 | 41.57033 | 2.53059 | 2209 ft | 127 kts | 94° |
| 2026-05-05 19:04 | 41.57164 | 2.54289 | 1931 ft | 142 kts | 71° |
| 2026-05-05 19:04 | 41.57461 | 2.55108 | 1689 ft | 147 kts | 61° |
| 2026-05-05 19:04 | 41.57995 | 2.56261 | 1475 ft | 144 kts | 58° |
| 2026-05-05 19:05 | 41.58516 | 2.57385 | 1343 ft | 140 kts | 58° |
| 2026-05-05 19:05 | 41.59025 | 2.58480 | 1199 ft | 141 kts | 59° |
| 2026-05-05 19:05 | 41.59416 | 2.59668 | 1195 ft | 131 kts | 70° |
| 2026-05-05 19:05 | 41.59674 | 2.60737 | 1477 ft | 110 kts | 70° |
| 2026-05-05 19:06 | 41.59926 | 2.61652 | 1707 ft | 105 kts | 67° |
| 2026-05-05 19:06 | 41.60183 | 2.62604 | 1753 ft | 114 kts | 70° |
| 2026-05-05 19:06 | 41.60434 | 2.63610 | 1837 ft | 114 kts | 71° |
| 2026-05-05 19:06 | 41.60701 | 2.64578 | 1994 ft | 111 kts | 67° |
| 2026-05-05 19:07 | 41.61041 | 2.65577 | 1972 ft | 121 kts | 64° |
| 2026-05-05 19:07 | 41.61408 | 2.66550 | 2116 ft | 115 kts | 64° |
| 2026-05-05 19:07 | 41.61785 | 2.67518 | 2152 ft | 120 kts | 65° |
| 2026-05-05 19:07 | 41.62161 | 2.68515 | 2219 ft | 120 kts | 65° |
| 2026-05-05 19:08 | 41.62555 | 2.69501 | 2292 ft | 120 kts | 64° |
| 2026-05-05 19:08 | 41.62948 | 2.70473 | 2338 ft | 123 kts | 64° |
| 2026-05-05 19:08 | 41.63371 | 2.71529 | 2263 ft | 130 kts | 64° |
| 2026-05-05 19:08 | 41.63807 | 2.72578 | 2291 ft | 128 kts | 63° |
| 2026-05-05 19:09 | 41.64243 | 2.73613 | 2318 ft | 127 kts | 63° |
| 2026-05-05 19:09 | 41.64688 | 2.74680 | 2222 ft | 133 kts | 64° |
| 2026-05-05 19:09 | 41.65123 | 2.75756 | 2239 ft | 130 kts | 63° |
| 2026-05-05 19:09 | 41.65598 | 2.76794 | 2171 ft | 136 kts | 53° |
| 2026-05-05 19:10 | 41.66200 | 2.77807 | 2093 ft | 139 kts | 50° |
| 2026-05-05 19:10 | 41.66810 | 2.78809 | 2084 ft | 138 kts | 50° |
| 2026-05-05 19:10 | 41.67404 | 2.79783 | 2146 ft | 133 kts | 50° |
| 2026-05-05 19:10 | 41.67960 | 2.80796 | 2120 ft | 137 kts | 56° |
| 2026-05-05 19:11 | 41.68489 | 2.81849 | 2142 ft | 135 kts | 54° |
| 2026-05-05 19:11 | 41.68983 | 2.82920 | 2121 ft | 137 kts | 62° |
| 2026-05-05 19:11 | 41.69407 | 2.84063 | 2117 ft | 136 kts | 66° |
| 2026-05-05 19:11 | 41.69787 | 2.85209 | 2172 ft | 132 kts | 68° |
| 2026-05-05 19:12 | 41.70125 | 2.86331 | 2258 ft | 130 kts | 69° |
| 2026-05-05 19:12 | 41.70429 | 2.87484 | 2259 ft | 134 kts | 70° |
| 2026-05-05 19:12 | 41.70812 | 2.88625 | 2310 ft | 132 kts | 62° |
| 2026-05-05 19:12 | 41.71250 | 2.89706 | 2329 ft | 135 kts | 61° |
| 2026-05-05 19:13 | 41.71722 | 2.90819 | 2276 ft | 139 kts | 60° |
| 2026-05-05 19:13 | 41.72182 | 2.91951 | 2221 ft | 137 kts | 63° |
| 2026-05-05 19:13 | 41.72605 | 2.93061 | 2096 ft | 135 kts | 63° |
| 2026-05-05 19:13 | 41.73061 | 2.94227 | 1888 ft | 136 kts | 61° |
| 2026-05-05 19:14 | 41.73558 | 2.95256 | 1802 ft | 130 kts | 56° |
| 2026-05-05 19:14 | 41.74069 | 2.96218 | 1771 ft | 124 kts | 52° |
| 2026-05-05 19:14 | 41.74583 | 2.97134 | 1724 ft | 122 kts | 51° |
| 2026-05-05 19:14 | 41.75078 | 2.98043 | 1712 ft | 121 kts | 55° |
| 2026-05-05 19:15 | 41.75546 | 2.98942 | 1708 ft | 119 kts | 50° |
| 2026-05-05 19:15 | 41.76115 | 2.99768 | 1674 ft | 119 kts | 43° |
| 2026-05-05 19:15 | 41.76680 | 3.00601 | 1631 ft | 119 kts | 46° |
| 2026-05-05 19:15 | 41.77225 | 3.01409 | 1640 ft | 117 kts | 46° |
| 2026-05-05 19:16 | 41.77723 | 3.02197 | 1726 ft | 109 kts | 47° |
| 2026-05-05 19:16 | 41.78233 | 3.02915 | 1771 ft | 106 kts | 45° |
| 2026-05-05 19:16 | 41.78732 | 3.03663 | 1766 ft | 110 kts | 40° |
| 2026-05-05 19:16 | 41.79317 | 3.04350 | 1732 ft | 111 kts | 43° |
| 2026-05-05 19:17 | 41.79855 | 3.05072 | 1746 ft | 110 kts | 42° |
| 2026-05-05 19:17 | 41.80398 | 3.05776 | 1789 ft | 109 kts | 46° |
| 2026-05-05 19:17 | 41.80896 | 3.06535 | 1815 ft | 109 kts | 46° |
| 2026-05-05 19:17 | 41.81389 | 3.07344 | 1742 ft | 116 kts | 52° |
| 2026-05-05 19:18 | 41.81921 | 3.08163 | 1685 ft | 119 kts | 46° |
| 2026-05-05 19:18 | 41.82489 | 3.08961 | 1627 ft | 120 kts | 44° |
| 2026-05-05 19:18 | 41.83063 | 3.09790 | 1582 ft | 121 kts | 46° |
| 2026-05-05 19:18 | 41.83654 | 3.10572 | 1552 ft | 118 kts | 45° |
| 2026-05-05 19:19 | 41.84238 | 3.11328 | 1526 ft | 117 kts | 42° |
| 2026-05-05 19:19 | 41.84828 | 3.12063 | 1531 ft | 114 kts | 40° |
| 2026-05-05 19:19 | 41.85388 | 3.12847 | 1450 ft | 118 kts | 50° |
| 2026-05-05 19:19 | 41.85986 | 3.13683 | 1245 ft | 129 kts | 48° |
| 2026-05-05 19:20 | 41.86562 | 3.14544 | 1273 ft | 119 kts | 52° |
| 2026-05-05 19:20 | 41.87054 | 3.15391 | 1335 ft | 110 kts | 56° |
| 2026-05-05 19:20 | 41.87546 | 3.16163 | 1477 ft | 113 kts | 50° |
| 2026-05-05 19:20 | 41.88082 | 3.16939 | 1620 ft | 112 kts | 49° |
| 2026-05-05 19:21 | 41.88612 | 3.17708 | 1772 ft | 112 kts | 49° |
| 2026-05-05 19:21 | 41.89220 | 3.18321 | 1919 ft | 106 kts | 13° |
| 2026-05-05 19:21 | 41.89903 | 3.17969 | 1873 ft | 118 kts | 310° |
| 2026-05-05 19:21 | 41.90380 | 3.16998 | 1697 ft | 130 kts | 298° |
| 2026-05-05 19:22 | 41.90875 | 3.15999 | 1657 ft | 129 kts | 301° |
| 2026-05-05 19:22 | 41.91399 | 3.15024 | 1608 ft | 129 kts | 303° |
| 2026-05-05 19:22 | 41.91910 | 3.14097 | 1762 ft | 117 kts | 304° |
| 2026-05-05 19:22 | 41.92383 | 3.13201 | 1791 ft | 123 kts | 304° |
| 2026-05-05 19:23 | 41.92864 | 3.12251 | 1877 ft | 120 kts | 304° |
| 2026-05-05 19:23 | 41.93326 | 3.11342 | 1952 ft | 119 kts | 300° |
| 2026-05-05 19:23 | 41.93722 | 3.10324 | 1938 ft | 124 kts | 296° |
| 2026-05-05 19:23 | 41.94029 | 3.09241 | 1968 ft | 125 kts | 285° |
| 2026-05-05 19:24 | 41.94353 | 3.08196 | 2074 ft | 117 kts | 308° |
| 2026-05-05 19:24 | 41.94921 | 3.07404 | 2073 ft | 122 kts | 310° |
| 2026-05-05 19:24 | 41.95501 | 3.06598 | 2089 ft | 113 kts | 314° |
| 2026-05-05 19:24 | 41.96082 | 3.05912 | 1989 ft | 110 kts | 316° |
| 2026-05-05 19:25 | 41.96644 | 3.05247 | 1922 ft | 107 kts | 316° |
| 2026-05-05 19:25 | 41.97192 | 3.04596 | 1866 ft | 101 kts | 310° |
| 2026-05-05 19:25 | 41.97378 | 3.03768 | 1805 ft | 99 kts | 254° |
| 2026-05-05 19:25 | 41.96954 | 3.02975 | 1623 ft | 107 kts | 231° |
| 2026-05-05 19:26 | 41.96485 | 3.02213 | 1561 ft | 105 kts | 231° |
| 2026-05-05 19:26 | 41.96043 | 3.01459 | 1558 ft | 96 kts | 238° |
| 2026-05-05 19:26 | 41.95700 | 3.00718 | 1529 ft | 93 kts | 239° |
| 2026-05-05 19:26 | 41.95370 | 2.99977 | 1500 ft | 90 kts | 246° |
| 2026-05-05 19:27 | 41.95120 | 2.99217 | 1445 ft | 91 kts | 239° |
| 2026-05-05 19:27 | 41.94772 | 2.98443 | 1233 ft | 105 kts | 246° |
| 2026-05-05 19:27 | 41.94467 | 2.97525 | 1100 ft | 105 kts | 244° |
| 2026-05-05 19:27 | 41.94105 | 2.96632 | 948 ft | 105 kts | 246° |
| 2026-05-05 19:28 | 41.93823 | 2.95754 | 1145 ft | 99 kts | 246° |
| 2026-05-05 19:28 | 41.93587 | 2.94973 | 1468 ft | 84 kts | 256° |
| 2026-05-05 19:28 | 41.93440 | 2.94190 | 1701 ft | 86 kts | 256° |
| 2026-05-05 19:28 | 41.93291 | 2.93374 | 1858 ft | 94 kts | 258° |
| 2026-05-05 19:29 | 41.93174 | 2.92494 | 2013 ft | 97 kts | 262° |
| 2026-05-05 19:29 | 41.93075 | 2.91589 | 2157 ft | 100 kts | 260° |
| 2026-05-05 19:29 | 41.92945 | 2.90656 | 2315 ft | 103 kts | 259° |
| 2026-05-05 19:29 | 41.92765 | 2.89690 | 2402 ft | 111 kts | 255° |
| 2026-05-05 19:30 | 41.92525 | 2.88671 | 2447 ft | 118 kts | 253° |
| 2026-05-05 19:30 | 41.92245 | 2.87605 | 2425 ft | 123 kts | 252° |
| 2026-05-05 19:30 | 41.91973 | 2.86517 | 2432 ft | 124 kts | 251° |
| 2026-05-05 19:30 | 41.91674 | 2.85419 | 2404 ft | 126 kts | 248° |
| 2026-05-05 19:31 | 41.91360 | 2.84293 | 2248 ft | 135 kts | 249° |
| 2026-05-05 19:31 | 41.91010 | 2.83092 | 2047 ft | 136 kts | 249° |
| 2026-05-05 19:31 | 41.90684 | 2.81902 | 1910 ft | 136 kts | 254° |
| 2026-05-05 19:31 | 41.90731 | 2.80681 | 1878 ft | 131 kts | 297° |
| 2026-05-05 19:32 | 41.91468 | 2.80130 | 1972 ft | 128 kts | 0° |
| 2026-05-05 19:32 | 41.92341 | 2.80377 | 1869 ft | 127 kts | 14° |
| 2026-05-05 19:32 | 41.93165 | 2.80695 | 1764 ft | 116 kts | 10° |
| 2026-05-05 19:32 | 41.93929 | 2.80791 | 1688 ft | 106 kts | 355° |
| 2026-05-05 19:33 | 41.94602 | 2.80491 | 1593 ft | 102 kts | 322° |
| 2026-05-05 19:33 | 41.94984 | 2.79759 | 1573 ft | 95 kts | 287° |
| 2026-05-05 19:33 | 41.95122 | 2.78918 | 1600 ft | 85 kts | 279° |
| 2026-05-05 19:33 | 41.94836 | 2.78269 | 1515 ft | 101 kts | 219° |
| 2026-05-05 19:34 | 41.94238 | 2.77738 | 1428 ft | 100 kts | 207° |
| 2026-05-05 19:34 | 41.93642 | 2.77427 | 1474 ft | 82 kts | 200° |
| 2026-05-05 19:34 | 41.93050 | 2.77201 | 1218 ft | 89 kts | 197° |
| 2026-05-05 19:35 | 41.91890 | 2.76761 | 648 ft | 79 kts | 199° |
| 2026-05-05 19:35 | 41.91387 | 2.76561 | 534 ft | 71 kts | 199° |
| 2026-05-05 19:35 | 41.90967 | 2.76382 | 466 ft | 54 kts | 200° |
| 2026-05-05 19:35 | 41.90668 | 2.76248 | 454 ft | 40 kts | 191° |
| 2026-05-05 19:36 | 41.90418 | 2.76174 | 439 ft | 33 kts | 196° |
| 2026-05-05 19:36 | 41.90191 | 2.76081 | 423 ft | 38 kts | 191° |
| 2026-05-05 19:36 | 41.89892 | 2.75974 | 410 ft | 45 kts | 206° |
| 2026-05-05 19:36 | 41.89634 | 2.75887 | 396 ft | 31 kts | 163° |
| 2026-05-05 19:37 | 41.89583 | 2.76024 | 395 ft | 10 kts | 78° |
| 2026-05-05 19:37 | 41.89611 | 2.76087 | 397 ft | 11 kts | 36° |
| 2026-05-05 19:37 | 41.89725 | 2.76131 | 403 ft | 22 kts | 20° |
| 2026-05-05 19:37 | 41.89903 | 2.76195 | 412 ft | 27 kts | 17° |
| 2026-05-05 19:38 | 41.90060 | 2.76271 | 418 ft | 22 kts | 18° |
| 2026-05-05 19:38 | 41.90166 | 2.76375 | 422 ft | 18 kts | 34° |
| 2026-05-05 19:38 | 41.90250 | 2.76472 | 432 ft | 2 kts | 9° |
| 2026-05-05 19:39 | 41.90252 | 2.76472 | 432 ft | 0 kts | 16° |
| 2026-05-05 19:39 | 41.90279 | 2.76505 | 434 ft | 8 kts | 347° |
| 2026-05-05 19:39 | 41.90292 | 2.76475 | 434 ft | 5 kts | 249° |
| 2026-05-05 19:39 | 41.90276 | 2.76461 | 433 ft | 0 kts | 202° |